Flight Track Log - Related Links

Times and Time Zones

All times are in EDT time to prevent confusion due to time zone crossing. See the N8953G flight status page for this flight to view local times or setup timezone preferences in your user account.

Time Position Orientation Groundspeed Altitude Reporting Facility
EDT Latitude Longitude Course Direction KTS MPH feet Rate Location/Type
Mon 11:34:26 AM 32.6333 -82.9833 90° East 122 140 5,500  Level Atlanta TRACON
Mon 11:35:32 AM 32.6333 -82.9333 90° East 117 135 5,500  Level Atlanta TRACON
Mon 11:36:33 AM 32.6200 -82.8994 115° Southeast 126 145 5,500  Level Atlanta Center
Mon 11:37:33 AM 32.6133 -82.8600 101° East 126 145 5,500  Level Atlanta Center
Mon 11:38:33 AM 32.6108 -82.8231 95° East 121 139 5,500  Level Atlanta Center
Mon 11:39:33 AM 32.6064 -82.7861 98° East 121 139 5,500 50 Level Atlanta Center
Mon 11:40:33 AM 32.6039 -82.7469 94° East 121 139 5,600 50 Climbing Atlanta Center
Mon 11:41:33 AM 32.5994 -82.7050 97° East 121 139 5,600 -50 Level Atlanta Center
Mon 11:42:33 AM 32.5947 -82.6681 99° East 121 139 5,500 -50 Descending Atlanta Center
Mon 11:43:33 AM 32.5881 -82.6311 102° East 121 139 5,500  Level Atlanta Center
Mon 11:44:33 AM 32.5833 -82.5917 98° East 121 139 5,500  Level Atlanta Center
Mon 11:45:33 AM 32.5808 -82.5525 94° East 121 139 5,500  Level Atlanta Center
Mon 11:46:33 AM 32.5742 -82.5156 102° East 121 139 5,500 50 Level Atlanta Center
Mon 11:47:33 AM 32.5694 -82.4811 99° East 121 139 5,600  Climbing Atlanta Center
Mon 11:49:29 AM 32.5622 -82.4019 96° East 125 144 5,500 -34 Descending Jacksonville Center
Mon 11:50:29 AM 32.5578 -82.3625 98° East 119 137 5,500 -50 Level Jacksonville Center
Mon 11:51:29 AM 32.5556 -82.3281 94° East 119 137 5,400 -50 Descending Jacksonville Center
Mon 11:52:29 AM 32.5492 -82.2814 99° East 124 143 5,400 -50 Level Jacksonville Center
Mon 11:53:29 AM 32.5450 -82.2494 99° East 118 136 5,300 -100 Descending Jacksonville Center
Mon 11:54:29 AM 32.5406 -82.2075 97° East 118 136 5,200 50 Descending Jacksonville Center
Mon 11:55:29 AM 32.5361 -82.1681 98° East 118 136 5,400 150 Climbing Jacksonville Center
Mon 11:56:29 AM 32.5317 -82.1361 99° East 113 130 5,500 50 Climbing Jacksonville Center
Mon 11:57:29 AM 32.5253 -82.0992 102° East 113 130 5,500  Level Jacksonville Center
Mon 11:58:29 AM 32.5228 -82.0597 94° East 113 130 5,500  Level Jacksonville Center

Login

Don't have an account? Register now (free) for customized features, flight alerts, and more!